Time;durP1;ratioP1;P1;durP2;ratioP2;P2;SDS_P1;SDS_P2;PMS_P1;PMS_P2;Temp;Humidity;BMP_temperature;BMP_pressure;BME280_temperature;BME280_humidity;BME280_pressure;Samples;Min_cycle;Max_cycle;Signal;HPM_P1;HPM_P2
2023/05/18 00:00:22;;;;;;;1.60;0.60;;;;;;;18.36;47.51;102568.84;20897839;28;20137;-63
2023/05/18 00:10:23;;;;;;;1.15;0.68;;;;;;;18.36;47.26;102579.63;20901192;28;20049;-63
2023/05/18 00:20:25;;;;;;;1.20;0.77;;;;;;;18.34;47.41;102578.81;20911709;28;20501;-63
2023/05/18 00:30:27;;;;;;;2.22;0.95;;;;;;;18.33;47.29;102580.66;20893272;28;20476;-63
2023/05/18 00:40:30;;;;;;;0.95;0.68;;;;;;;18.32;47.51;102581.63;20898933;28;20417;-63
2023/05/18 00:50:32;;;;;;;1.83;0.90;;;;;;;18.30;47.54;102583.56;20909027;28;20087;-63
2023/05/18 01:00:36;;;;;;;1.75;0.82;;;;;;;18.30;47.67;102577.28;20908767;28;20202;-63
2023/05/18 01:10:39;;;;;;;1.20;0.80;;;;;;;18.29;47.62;102587.22;20907762;28;20056;-63
2023/05/18 01:21:09;;;;;;;1.42;1.00;;;;;;;18.27;47.70;102584.63;20888180;28;20063;-64
2023/05/18 01:31:13;;;;;;;2.40;0.98;;;;;;;18.26;47.82;102592.81;20906978;28;20049;-63
2023/05/18 01:41:23;;;;;;;1.20;0.70;;;;;;;18.25;47.68;102591.09;20874748;28;20041;-63
2023/05/18 01:51:30;;;;;;;1.25;0.90;;;;;;;18.24;47.68;102597.44;20887472;28;20413;-63
2023/05/18 02:01:31;;;;;;;2.55;0.80;;;;;;;18.24;47.73;102602.84;20886787;28;20083;-63
2023/05/18 02:11:33;;;;;;;1.77;0.80;;;;;;;18.24;47.74;102600.13;20901801;28;20799;-63
2023/05/18 02:21:36;;;;;;;1.38;0.70;;;;;;;18.24;47.72;102602.84;20901060;28;20558;-63
2023/05/18 02:31:38;;;;;;;1.55;0.70;;;;;;;18.23;47.60;102603.78;20892370;28;20052;-63
2023/05/18 02:41:40;;;;;;;1.88;0.80;;;;;;;18.23;47.72;102595.72;20893424;28;20053;-63
2023/05/18 02:51:41;;;;;;;1.25;0.90;;;;;;;18.22;47.63;102602.06;20899269;28;20076;-63
2023/05/18 03:01:44;;;;;;;1.85;0.77;;;;;;;18.22;47.53;102604.75;20898980;28;20081;-63
2023/05/18 03:11:46;;;;;;;2.78;0.88;;;;;;;18.21;47.58;102597.63;20898255;28;20049;-63
2023/05/18 03:21:49;;;;;;;1.65;0.80;;;;;;;18.19;47.58;102599.56;20897545;28;20068;-63
2023/05/18 03:31:51;;;;;;;1.40;0.90;;;;;;;18.17;47.53;102604.19;20886032;28;20045;-63
2023/05/18 03:41:53;;;;;;;1.45;0.77;;;;;;;18.14;47.66;102599.84;20897615;28;20940;-63
2023/05/18 03:51:55;;;;;;;2.67;0.98;;;;;;;18.13;47.51;102591.88;20913946;28;20049;-63
2023/05/18 04:01:57;;;;;;;0.57;0.57;;;;;;;18.11;47.62;102605.44;20913271;28;20049;-63
2023/05/18 04:11:59;;;;;;;0.80;0.60;;;;;;;18.09;47.52;102616.28;20911758;28;20049;-63
2023/05/18 04:22:04;;;;;;;1.60;0.77;;;;;;;18.09;47.61;102618.13;20910794;28;20468;-63
2023/05/18 04:32:07;;;;;;;1.27;0.73;;;;;;;18.05;47.54;102628.22;20894915;28;20045;-63
2023/05/18 04:42:09;;;;;;;1.98;0.80;;;;;;;18.06;47.66;102638.03;20908547;28;20099;-63
2023/05/18 04:52:11;;;;;;;1.40;0.52;;;;;;;18.07;47.54;102645.16;20891826;28;20045;-63
2023/05/18 05:02:13;;;;;;;2.33;0.68;;;;;;;18.07;47.60;102653.25;20907093;28;20049;-63
2023/05/18 05:12:15;;;;;;;0.52;0.47;;;;;;;18.06;47.64;102646.13;20905906;28;20049;-63
2023/05/18 05:22:18;;;;;;;0.95;0.85;;;;;;;18.07;47.37;102657.78;20906313;28;20505;-63
2023/05/18 05:32:20;;;;;;;1.60;0.82;;;;;;;18.08;47.40;102656.81;20895039;28;20455;-63
2023/05/18 05:42:24;;;;;;;1.77;1.00;;;;;;;18.07;47.18;102669.41;20903880;28;20460;-63
2023/05/18 05:52:29;;;;;;;1.08;0.50;;;;;;;18.08;47.27;102668.47;20903294;28;20040;-63
2023/05/18 06:02:30;;;;;;;1.07;0.57;;;;;;;18.08;47.23;102668.47;20903960;28;20056;-63
2023/05/18 06:12:33;;;;;;;2.67;1.17;;;;;;;18.08;47.14;102679.25;20900280;28;20041;-63
2023/05/18 06:22:35;;;;;;;1.33;0.60;;;;;;;18.11;47.09;102681.75;20900918;28;20049;-63
2023/05/18 06:32:51;;;;;;;1.33;0.70;;;;;;;18.14;46.97;102691.47;20872713;28;20041;-63
2023/05/18 06:42:53;;;;;;;2.22;0.98;;;;;;;18.17;47.10;102690.44;20899699;28;20103;-63
2023/05/18 06:53:01;;;;;;;1.15;0.75;;;;;;;18.22;47.04;102685.63;20898621;28;20076;-63
2023/05/18 07:03:03;;;;;;;1.30;0.70;;;;;;;18.25;47.14;102688.13;20899208;28;20077;-63
2023/05/18 07:13:05;;;;;;;1.60;0.68;;;;;;;18.29;46.92;102695.06;20899881;28;20045;-63
2023/05/18 07:23:07;;;;;;;1.50;0.80;;;;;;;18.37;46.98;102698.16;20907681;28;20052;-63
2023/05/18 07:33:08;;;;;;;1.30;0.70;;;;;;;18.40;46.83;102713.28;20901605;28;20080;-63
2023/05/18 07:43:10;;;;;;;1.50;0.70;;;;;;;18.37;46.67;102708.94;20914698;28;20045;-63
2023/05/18 07:53:12;;;;;;;1.27;0.60;;;;;;;18.44;46.51;102720.22;20914201;28;20544;-63
2023/05/18 08:03:13;;;;;;;1.15;0.57;;;;;;;18.44;46.70;102716.63;20913314;28;20067;-63
2023/05/18 08:13:15;;;;;;;1.45;0.60;;;;;;;18.47;46.68;102719.13;20907811;28;20111;-63
2023/05/18 08:23:17;;;;;;;0.95;0.60;;;;;;;18.50;46.36;102716.25;20899441;28;20456;-63
2023/05/18 08:33:18;;;;;;;2.10;0.75;;;;;;;18.51;46.35;102720.69;20900703;28;20052;-63
2023/05/18 08:43:22;;;;;;;1.75;0.88;;;;;;;18.55;46.24;102689.84;20905644;28;20052;-63
2023/05/18 08:53:23;;;;;;;1.30;0.60;;;;;;;18.67;46.32;102693.63;20904923;28;20147;-63
2023/05/18 09:03:25;;;;;;;1.58;0.60;;;;;;;18.74;46.39;102684.16;20904432;28;20132;-63
2023/05/18 09:13:29;;;;;;;1.05;0.73;;;;;;;18.80;46.35;102702.69;20868450;28;1031928;-63
2023/05/18 09:23:31;;;;;;;2.17;0.70;;;;;;;18.84;46.25;102690.72;20891251;28;20045;-63
2023/05/18 09:33:35;;;;;;;1.23;0.68;;;;;;;18.84;46.27;102674.53;20905130;28;20053;-63
2023/05/18 09:43:37;;;;;;;1.38;0.60;;;;;;;18.91;46.25;102680.38;20903554;28;20052;-63
2023/05/18 09:53:39;;;;;;;0.68;0.50;;;;;;;18.91;46.32;102664.19;20904603;28;20052;-63
2023/05/18 10:03:41;;;;;;;1.67;0.75;;;;;;;18.92;46.46;102655.13;20904384;28;20088;-63
2023/05/18 10:13:45;;;;;;;0.90;0.60;;;;;;;18.94;46.42;102649.63;20902871;28;20084;-63
2023/05/18 10:23:49;;;;;;;1.48;0.70;;;;;;;18.88;46.48;102637.41;20891917;28;20080;-64
2023/05/18 10:33:52;;;;;;;0.67;0.40;;;;;;;18.98;46.63;102632.31;20900399;28;20053;-63
2023/05/18 10:43:54;;;;;;;0.80;0.60;;;;;;;18.99;46.62;102629.47;20901791;28;20052;-63
2023/05/18 10:54:09;;;;;;;1.83;0.60;;;;;;;19.02;46.68;102633.81;20882953;28;20049;-63
2023/05/18 11:04:11;;;;;;;2.13;0.60;;;;;;;19.05;46.93;102633.63;20900117;28;20116;-63
2023/05/18 11:14:13;;;;;;;1.10;0.77;;;;;;;19.08;46.95;102638.81;20898558;28;20056;-63
2023/05/18 11:24:29;;;;;;;1.23;0.80;;;;;;;19.09;47.01;102616.25;20886037;28;20144;-63
2023/05/18 11:34:45;;;;;;;1.20;0.70;;;;;;;19.11;46.76;102617.00;20898137;28;20141;-63
2023/05/18 11:44:52;;;;;;;0.60;0.50;;;;;;;19.08;47.05;102602.88;20898811;28;20440;-63
2023/05/18 11:54:55;;;;;;;1.27;0.60;;;;;;;19.17;47.18;102590.56;20898322;28;20603;-63
2023/05/18 12:05:01;;;;;;;1.40;0.60;;;;;;;19.17;47.14;102586.06;20901017;28;20148;-63
2023/05/18 12:15:04;;;;;;;1.65;0.60;;;;;;;19.19;47.13;102570.59;20912220;28;20045;-63
2023/05/18 12:25:06;;;;;;;0.77;0.50;;;;;;;19.20;47.48;102568.75;20903671;28;20642;-64
2023/05/18 12:35:08;;;;;;;0.50;0.47;;;;;;;19.21;47.50;102565.09;20910891;28;20049;-63
2023/05/18 12:45:10;;;;;;;0.70;0.47;;;;;;;19.19;47.34;102549.00;20909771;28;20116;-63
2023/05/18 12:55:20;;;;;;;1.25;0.45;;;;;;;19.19;47.40;102551.72;20908506;28;20071;-63
2023/05/18 13:05:24;;;;;;;1.50;0.80;;;;;;;19.18;47.50;102541.88;20909134;28;20059;-64
2023/05/18 13:15:32;;;;;;;1.57;0.87;;;;;;;19.16;47.22;102530.31;20901272;28;20045;-64
2023/05/18 13:25:34;;;;;;;0.93;0.63;;;;;;;19.16;47.90;102533.03;20897335;28;20140;-63
2023/05/18 13:35:36;;;;;;;1.33;0.70;;;;;;;19.12;47.62;102508.06;20905075;28;20079;-63
2023/05/18 13:45:38;;;;;;;1.17;0.60;;;;;;;19.16;47.55;102506.03;20904038;28;20045;-63
2023/05/18 13:55:40;;;;;;;1.27;0.70;;;;;;;19.13;47.67;102495.44;20904524;28;20048;-63
2023/05/18 14:05:42;;;;;;;0.60;0.50;;;;;;;19.15;47.62;102490.81;20903916;28;20103;-63
2023/05/18 14:15:43;;;;;;;1.08;0.50;;;;;;;19.16;47.82;102494.34;20870510;28;20468;-63
2023/05/18 14:25:45;;;;;;;1.45;0.57;;;;;;;19.16;47.75;102475.44;20901137;28;20068;-63
2023/05/18 14:35:46;;;;;;;1.60;0.47;;;;;;;19.15;47.94;102477.31;20900778;28;20045;-63
2023/05/18 14:45:49;;;;;;;0.82;0.68;;;;;;;19.13;47.99;102465.75;20900686;28;20048;-63
2023/05/18 14:56:09;;;;;;;1.27;0.80;;;;;;;19.13;47.94;102474.69;20900435;28;20045;-63
2023/05/18 15:06:11;;;;;;;1.63;0.70;;;;;;;19.12;48.02;102472.13;20898825;28;20056;-63
2023/05/18 15:16:13;;;;;;;1.08;0.50;;;;;;;19.13;48.02;102471.16;20889308;28;20079;-63
2023/05/18 15:26:15;;;;;;;0.95;0.55;;;;;;;19.11;48.29;102459.59;20899470;28;20094;-63
2023/05/18 15:36:17;;;;;;;1.02;0.63;;;;;;;19.10;48.29;102457.88;20898819;28;20148;-63
2023/05/18 15:46:18;;;;;;;1.23;0.60;;;;;;;19.09;48.13;102462.38;20912841;28;20053;-63
2023/05/18 15:56:20;;;;;;;0.75;0.70;;;;;;;19.08;48.23;102454.41;20913911;28;20102;-63
2023/05/18 16:06:22;;;;;;;0.70;0.50;;;;;;;19.05;48.36;102450.06;20913227;28;20053;-63
2023/05/18 16:16:25;;;;;;;1.63;0.50;;;;;;;19.04;48.39;102455.59;20899542;28;20101;-63
2023/05/18 16:26:27;;;;;;;0.80;0.50;;;;;;;19.03;48.62;102440.38;20911443;28;20049;-63
2023/05/18 16:36:30;;;;;;;1.20;0.45;;;;;;;19.01;48.68;102429.66;20908942;28;20053;-63
2023/05/18 16:46:33;;;;;;;0.70;0.50;;;;;;;19.02;48.69;102435.94;20911222;28;20072;-63
2023/05/18 16:56:35;;;;;;;0.68;0.50;;;;;;;19.01;48.67;102436.91;20909269;28;20053;-63
2023/05/18 17:06:36;;;;;;;1.50;0.50;;;;;;;18.99;48.80;102432.47;20909100;28;20045;-63
2023/05/18 17:16:39;;;;;;;1.20;0.57;;;;;;;18.99;49.01;102434.31;20899027;28;20132;-63
2023/05/18 17:26:41;;;;;;;1.90;0.65;;;;;;;18.97;48.99;102431.69;20908295;28;20448;-63
2023/05/18 17:36:43;;;;;;;1.40;0.63;;;;;;;18.95;48.93;102438.16;20906327;28;20136;-63
2023/05/18 17:46:45;;;;;;;0.93;0.60;;;;;;;18.85;49.09;102416.34;20906153;28;20048;-63
2023/05/18 17:56:47;;;;;;;1.58;0.60;;;;;;;18.92;49.21;102423.03;20905343;28;20048;-63
2023/05/18 18:06:51;;;;;;;1.02;0.68;;;;;;;18.90;49.04;102433.06;20902383;28;20099;-63
2023/05/18 18:16:52;;;;;;;0.98;0.60;;;;;;;18.89;48.96;102435.88;20890721;28;20132;-63
2023/05/18 18:26:54;;;;;;;0.93;0.63;;;;;;;18.89;48.97;102442.13;20901878;28;20501;-63
2023/05/18 18:36:57;;;;;;;0.73;0.45;;;;;;;18.88;49.00;102447.66;20900720;28;20052;-63
2023/05/18 18:46:59;;;;;;;0.82;0.50;;;;;;;18.86;48.96;102461.22;20901685;28;20068;-63
2023/05/18 18:57:00;;;;;;;1.20;0.70;;;;;;;18.84;49.10;102465.88;20901339;28;20052;-63
2023/05/18 19:07:03;;;;;;;0.88;0.57;;;;;;;18.82;49.32;102468.69;20893390;28;20045;-63
2023/05/18 19:17:05;;;;;;;1.27;0.60;;;;;;;18.81;49.33;102479.56;20899571;28;20048;-63
2023/05/18 19:27:06;;;;;;;1.45;0.60;;;;;;;18.77;49.11;102484.28;20916471;28;20056;-63
2023/05/18 19:37:08;;;;;;;1.75;0.60;;;;;;;18.78;49.18;102490.56;20916731;28;20572;-63
2023/05/18 19:47:10;;;;;;;0.98;0.65;;;;;;;18.76;49.15;102500.59;20915401;28;20055;-63
2023/05/18 19:57:12;;;;;;;1.33;0.70;;;;;;;18.73;49.08;102512.44;20914780;28;20166;-64
2023/05/18 20:07:13;;;;;;;0.73;0.50;;;;;;;18.74;49.44;102516.03;20903108;28;20041;-63
2023/05/18 20:17:15;;;;;;;2.30;0.88;;;;;;;18.73;49.23;102525.09;20913327;28;20053;-63
2023/05/18 20:27:17;;;;;;;1.00;0.60;;;;;;;18.69;49.35;102519.91;20911521;28;20452;-63
2023/05/18 20:37:18;;;;;;;0.80;0.60;;;;;;;18.67;49.33;102516.44;20911498;28;20131;-63
2023/05/18 20:47:20;;;;;;;1.00;0.60;;;;;;;18.67;49.47;102535.31;20909734;28;20081;-63
2023/05/18 20:57:22;;;;;;;1.10;0.73;;;;;;;18.65;49.29;102545.34;20909294;28;20069;-63
2023/05/18 21:07:23;;;;;;;1.48;0.70;;;;;;;18.57;49.50;102526.13;20895358;28;20045;-63
2023/05/18 21:17:25;;;;;;;1.65;0.98;;;;;;;18.62;49.55;102542.88;20908569;28;20057;-63
2023/05/18 21:27:27;;;;;;;1.83;0.80;;;;;;;18.62;49.54;102539.28;20890105;28;20082;-63
2023/05/18 21:37:28;;;;;;;0.75;0.60;;;;;;;18.61;49.47;102545.66;20906000;28;20049;-63
2023/05/18 21:47:30;;;;;;;2.00;1.00;;;;;;;18.60;49.56;102543.91;20906831;28;20080;-63
2023/05/18 21:57:32;;;;;;;1.08;0.60;;;;;;;18.58;49.64;102552.13;20905102;28;20111;-63
2023/05/18 22:07:33;;;;;;;1.52;0.73;;;;;;;18.57;49.58;102563.88;20893580;28;20135;-63
2023/05/18 22:17:35;;;;;;;1.30;0.65;;;;;;;18.55;49.72;102560.38;20904114;28;20055;-63
2023/05/18 22:27:37;;;;;;;1.25;0.73;;;;;;;18.52;49.67;102557.91;20903449;28;20052;-63
2023/05/18 22:37:39;;;;;;;1.23;0.70;;;;;;;18.50;50.03;102549.03;20902477;28;20080;-63
2023/05/18 22:47:43;;;;;;;1.98;0.90;;;;;;;18.49;49.93;102555.41;20901619;28;20742;-63
2023/05/18 22:57:45;;;;;;;1.63;0.60;;;;;;;18.46;49.95;102551.09;20901029;28;20053;-63
2023/05/18 23:07:48;;;;;;;2.63;0.95;;;;;;;18.45;49.92;102561.97;20888328;28;20516;-63
2023/05/18 23:17:53;;;;;;;0.68;0.68;;;;;;;18.43;50.04;102550.41;20900201;28;20053;-63
2023/05/18 23:27:55;;;;;;;0.88;0.60;;;;;;;18.40;49.97;102552.34;20899886;28;20053;-63
2023/05/18 23:38:00;;;;;;;1.17;0.65;;;;;;;18.38;50.14;102551.56;20899660;28;20529;-63
2023/05/18 23:48:02;;;;;;;1.15;0.70;;;;;;;18.37;50.06;102551.69;20882081;28;20045;-63
2023/05/18 23:58:05;;;;;;;1.15;0.70;;;;;;;18.29;50.04;102536.00;20881068;28;20099;-63
